Station Historical Data
Daily Summary for June 4, 2017 Units:  Metric    English   Both
« Previous Day
Next Day »
Daily Weekly Monthly Yearly Custom
  High: Low: Average:
Temperature: 23.1 °C 11.5 °C 16.9 °C
Dew Point: 16.9 °C 6.1 °C 12.6 °C
Humidity: 89% 64% 76%
Wind Speed: 22.5km/h 0km/h 5km/h
Wind Gust: 35.4km/h - -
Wind- - SSW
Pressure: 1016.1 hPa 1005.6 hPa -
Precipitation: 0 mm    
Historical Graphs
 
 
Tabular Data for June 4, 2017
Time Temperature Dew Point Pressure Wind Wind Speed Wind Gust Humidity Rainfall Rate (Hourly)
00:04 12.4 °C 7.9 °C 1016.1 hPa Calm     74% 0 mm
00:09 12.7 °C 8 °C 1016.1 hPa Calm     73% 0 mm
00:14 12.9 °C 8.2 °C 1016.1 hPa Calm     73% 0 mm
00:19 12.9 °C 7.9 °C 1016.1 hPa Calm     72% 0 mm
00:24 12.8 °C 8.1 °C 1016.1 hPa Calm     73% 0 mm
00:29 12.9 °C 8.2 °C 1016.1 hPa Calm     73% 0 mm
00:34 12.7 °C 8 °C 1016.1 hPa Calm     73% 0 mm
00:39 12.6 °C 7.8 °C 1016.1 hPa Calm     73% 0 mm
00:44 12.6 °C 7.9 °C 1015.8 hPa Calm     73% 0 mm
00:49 12.5 °C 8 °C 1015.8 hPa Calm   4.8 km/h 74% 0 mm
00:54 12.3 °C 7.6 °C 1015.8 hPa ESE 1.6 km/h 4.8 km/h 73% 0 mm
00:59 12.3 °C 7.6 °C 1015.8 hPa Calm   4.8 km/h 73% 0 mm
01:05 12.1 °C 7.6 °C 1015.8 hPa Calm   4.8 km/h 74% 0 mm
01:10 12 °C 7.3 °C 1015.8 hPa Calm   4.8 km/h 73% 0 mm
01:15 11.9 °C 7.2 °C 1015.8 hPa Calm   3.2 km/h 73% 0 mm
01:20 11.8 °C 7.2 °C 1015.8 hPa Calm   3.2 km/h 73% 0 mm
01:25 11.8 °C 7.2 °C 1015.8 hPa East 1.6 km/h 3.2 km/h 73% 0 mm
01:30 11.7 °C 7.1 °C 1015.5 hPa Calm   3.2 km/h 73% 0 mm
01:35 11.7 °C 7 °C 1015.8 hPa Calm   3.2 km/h 73% 0 mm
01:40 11.7 °C 7 °C 1015.5 hPa Calm     73% 0 mm
01:45 11.7 °C 6.8 °C 1015.5 hPa Calm     72% 0 mm
01:50 11.6 °C 6.7 °C 1015.5 hPa East 1.6 km/h 1.6 km/h 72% 0 mm
01:55 11.6 °C 6.7 °C 1015.8 hPa Calm   1.6 km/h 72% 0 mm
02:00 11.6 °C 6.7 °C 1015.5 hPa Calm     72% 0 mm
02:05 11.5 °C 6.6 °C 1015.5 hPa Calm   1.6 km/h 72% 0 mm
02:10 11.6 °C 6.7 °C 1015.5 hPa Calm   3.2 km/h 72% 0 mm
02:15 11.6 °C 6.5 °C 1015.5 hPa East 1.6 km/h 3.2 km/h 71% 0 mm
02:20 11.7 °C 6.6 °C 1015.1 hPa East 1.6 km/h 3.2 km/h 71% 0 mm
02:25 11.9 °C 6.6 °C 1015.1 hPa Calm   6.4 km/h 70% 0 mm
02:30 12.1 °C 6.6 °C 1015.1 hPa SE 4.8 km/h 4.8 km/h 69% 0 mm
02:35 12.3 °C 6.6 °C 1015.1 hPa SE 1.6 km/h 6.4 km/h 68% 0 mm
02:40 12.4 °C 6.7 °C 1015.1 hPa SE 3.2 km/h 6.4 km/h 68% 0 mm
02:45 12.5 °C 6.6 °C 1014.8 hPa SE 3.2 km/h 6.4 km/h 67% 0 mm
02:50 12.6 °C 6.7 °C 1014.8 hPa Calm   6.4 km/h 67% 0 mm
02:55 12.7 °C 6.5 °C 1014.8 hPa SE 4.8 km/h 6.4 km/h 66% 0 mm
03:00 12.8 °C 6.1 °C 1014.8 hPa Calm   4.8 km/h 64% 0 mm
03:10 12.9 °C 6.7 °C 1014.8 hPa SE 1.6 km/h 4.8 km/h 66% 0 mm
03:15 12.9 °C 7.1 °C 1014.4 hPa SE 1.6 km/h 4.8 km/h 68% 0 mm
03:20 12.8 °C 7.7 °C 1014.4 hPa SE 1.6 km/h 6.4 km/h 71% 0 mm
03:25 12.6 °C 7.4 °C 1014.8 hPa Calm   3.2 km/h 71% 0 mm
03:30 12.4 °C 7.9 °C 1014.8 hPa Calm   1.6 km/h 74% 0 mm
03:35 12.4 °C 8.1 °C 1014.8 hPa Calm     75% 0 mm
03:40 12.5 °C 8.2 °C 1014.4 hPa Calm   4.8 km/h 75% 0 mm
03:45 12.6 °C 8.2 °C 1014.4 hPa SSE 1.6 km/h 4.8 km/h 75% 0 mm
03:50 12.6 °C 8.2 °C 1014.1 hPa SE 4.8 km/h 6.4 km/h 75% 0 mm
03:55 12.6 °C 8.1 °C 1014.1 hPa Calm   8 km/h 74% 0 mm
04:00 12.7 °C 8.2 °C 1014.1 hPa Calm     74% 0.25 mm
04:05 12.8 °C 8.1 °C 1013.8 hPa Calm   4.8 km/h 73% 0.25 mm
04:10 12.9 °C 8 °C 1013.8 hPa SE 3.2 km/h 8 km/h 72% 0.25 mm
04:15 13.1 °C 7.9 °C 1013.8 hPa ESE 3.2 km/h 12.9 km/h 71% 0.25 mm
04:20 13.2 °C 7.9 °C 1013.8 hPa ESE 3.2 km/h 12.9 km/h 70% 0.25 mm
04:25 13.3 °C 7.7 °C 1013.8 hPa ESE 1.6 km/h 6.4 km/h 69% 0.25 mm
04:30 13.3 °C 7.8 °C 1013.8 hPa ESE 1.6 km/h 8 km/h 69% 0.25 mm
04:35 13.2 °C 7.8 °C 1013.8 hPa Calm   8 km/h 70% 0.25 mm
04:40 13.1 °C 7.9 °C 1013.8 hPa Calm   6.4 km/h 71% 0.25 mm
04:45 13.1 °C 8.1 °C 1013.8 hPa ESE 1.6 km/h 6.4 km/h 72% 0.25 mm
04:50 13 °C 8.1 °C 1013.8 hPa East 1.6 km/h 8 km/h 72% 0.25 mm
04:55 12.9 °C 8.2 °C 1013.8 hPa SE 4.8 km/h 8 km/h 73% 0.25 mm
05:00 12.9 °C 8.4 °C 1013.4 hPa Calm   6.4 km/h 74% 0 mm
05:05 12.9 °C 8.4 °C 1013.4 hPa SE 3.2 km/h 8 km/h 74% 0 mm
05:10 12.9 °C 8.2 °C 1013.4 hPa SSE 3.2 km/h 9.7 km/h 73% 0 mm
05:15 12.9 °C 8.4 °C 1013.4 hPa SSE 3.2 km/h 9.7 km/h 74% 0 mm
05:20 12.9 °C 8.2 °C 1013.1 hPa SSE 4.8 km/h 11.3 km/h 73% 0 mm
05:25 12.9 °C 8.4 °C 1013.1 hPa SE 4.8 km/h 11.3 km/h 74% 0 mm
05:29 12.9 °C 8.2 °C 1012.8 hPa SSE 3.2 km/h 11.3 km/h 73% 0 mm
05:34 13 °C 8.3 °C 1012.8 hPa ESE 3.2 km/h 9.7 km/h 73% 0 mm
05:39 13 °C 8.3 °C 1013.1 hPa SE 6.4 km/h 9.7 km/h 73% 0 mm
05:44 13 °C 8.3 °C 1012.8 hPa SE 4.8 km/h 11.3 km/h 73% 0 mm
05:50 13 °C 8.3 °C 1013.1 hPa SE 3.2 km/h 11.3 km/h 73% 0 mm
05:55 13 °C 8.4 °C 1012.8 hPa Calm   4.8 km/h 74% 0 mm
06:00 13 °C 8.4 °C 1013.1 hPa Calm   1.6 km/h 74% 0 mm
06:05 13 °C 8.4 °C 1013.1 hPa SSE 1.6 km/h 8 km/h 74% 0 mm
06:10 13 °C 8.7 °C 1013.1 hPa SSE 1.6 km/h 4.8 km/h 75% 0 mm
06:15 13.1 °C 8.7 °C 1012.8 hPa SSE 3.2 km/h 8 km/h 75% 0 mm
06:20 13.1 °C 8.6 °C 1012.8 hPa SSE 3.2 km/h 8 km/h 74% 0 mm
06:25 13.2 °C 8.6 °C 1013.1 hPa SSE 3.2 km/h 6.4 km/h 74% 0 mm
06:30 13.2 °C 8.6 °C 1012.8 hPa SSE 3.2 km/h 6.4 km/h 74% 0 mm
06:35 13.3 °C 8.7 °C 1012.8 hPa SSE 1.6 km/h 6.4 km/h 74% 0 mm
06:40 13.3 °C 8.7 °C 1012.4 hPa SSE 1.6 km/h 6.4 km/h 74% 0 mm
06:45 13.3 °C 8.7 °C 1012.4 hPa SE 3.2 km/h 6.4 km/h 74% 0 mm
06:50 13.3 °C 8.8 °C 1012.4 hPa ESE 1.6 km/h 8 km/h 74% 0 mm
06:55 13.4 °C 8.8 °C 1012.1 hPa SE 3.2 km/h 8 km/h 74% 0 mm
06:59 13.4 °C 8.9 °C 1012.1 hPa SE 1.6 km/h 4.8 km/h 74% 0 mm
07:05 13.6 °C 8.8 °C 1012.1 hPa ESE 3.2 km/h 6.4 km/h 73% 0 mm
07:10 13.7 °C 9.1 °C 1012.4 hPa Calm   4.8 km/h 74% 0 mm
07:15 13.7 °C 8.9 °C 1012.4 hPa Calm   3.2 km/h 73% 0 mm
07:19 13.8 °C 9.3 °C 1012.4 hPa Calm   3.2 km/h 74% 0 mm
07:25 13.8 °C 9.6 °C 1012.4 hPa Calm     76% 0 mm
07:30 13.6 °C 9.8 °C 1012.4 hPa Calm   3.2 km/h 78% 0.25 mm
07:35 13.3 °C 9.8 °C 1012.4 hPa Calm   3.2 km/h 79% 0.25 mm
07:40 13.2 °C 9.8 °C 1012.8 hPa Calm     80% 0.25 mm
07:45 13.2 °C 10 °C 1013.1 hPa Calm   1.6 km/h 81% 0.25 mm
07:50 13.2 °C 10.2 °C 1013.1 hPa Calm     82% 0.25 mm
07:54 13 °C 10 °C 1013.1 hPa Calm     82% 0.51 mm
07:59 12.9 °C 10.1 °C 1013.1 hPa Calm     83% 0.51 mm
08:05 12.9 °C 10.1 °C 1013.1 hPa Calm     83% 0.51 mm
08:09 13 °C 10.3 °C 1013.1 hPa Calm     84% 0.51 mm
08:14 13.1 °C 10.6 °C 1013.1 hPa Calm     85% 0.76 mm
08:20 13.2 °C 10.6 °C 1013.1 hPa Calm     84% 0.76 mm
08:24 13.2 °C 10.5 °C 1013.1 hPa Calm     84% 0.76 mm
08:30 13.2 °C 10.3 °C 1013.1 hPa ENE 1.6 km/h 4.8 km/h 83% 0.76 mm
08:35 13.1 °C 10.4 °C 1012.8 hPa SE 8 km/h 8 km/h 84% 0.76 mm
08:40 13 °C 10.6 °C 1012.4 hPa SE 3.2 km/h 8 km/h 85% 1.02 mm
08:45 12.9 °C 10.4 °C 1012.1 hPa East 1.6 km/h 9.7 km/h 85% 1.02 mm
08:50 12.8 °C 10.6 °C 1012.1 hPa East 4.8 km/h 11.3 km/h 86% 1.27 mm
08:54 12.8 °C 10.5 °C 1011.7 hPa ESE 4.8 km/h 12.9 km/h 86% 1.02 mm
08:59 12.7 °C 10.4 °C 1011.4 hPa ESE 4.8 km/h 14.5 km/h 86% 1.02 mm
09:05 12.6 °C 10.2 °C 1011.1 hPa ESE 4.8 km/h 14.5 km/h 85% 1.02 mm
09:10 12.7 °C 10.4 °C 1011.1 hPa SE 4.8 km/h 14.5 km/h 86% 1.02 mm
09:15 12.9 °C 10.7 °C 1011.1 hPa ESE 3.2 km/h 12.9 km/h 86% 0.76 mm
09:20 13.2 °C 10.9 °C 1011.1 hPa SE 6.4 km/h 6.4 km/h 86% 0.76 mm
09:24 13.3 °C 10.9 °C 1011.4 hPa SE 3.2 km/h 6.4 km/h 85% 0.76 mm
09:30 13.4 °C 10.9 °C 1011.7 hPa SE 1.6 km/h 6.4 km/h 85% 0.51 mm
09:34 13.6 °C 10.9 °C 1011.7 hPa SE 1.6 km/h 4.8 km/h 84% 0.51 mm
09:39 13.7 °C 11 °C 1011.7 hPa SE 3.2 km/h 6.4 km/h 84% 0.51 mm
09:44 13.7 °C 11.1 °C 1011.7 hPa Calm   4.8 km/h 84% 0.51 mm
09:49 13.8 °C 11.3 °C 1011.4 hPa Calm   8 km/h 85% 0.51 mm
09:54 13.7 °C 11.2 °C 1011.4 hPa SSE 1.6 km/h 8 km/h 85% 0.51 mm
09:59 13.4 °C 10.9 °C 1011.4 hPa SSE 3.2 km/h 9.7 km/h 85% 0.51 mm
10:04 13.3 °C 11 °C 1011.4 hPa SSE 4.8 km/h 11.3 km/h 86% 1.02 mm
10:09 13.3 °C 11.2 °C 1011.1 hPa SSE 6.4 km/h 11.3 km/h 87% 1.02 mm
10:15 13.3 °C 11.2 °C 1011.1 hPa South 4.8 km/h 12.9 km/h 87% 1.27 mm
10:20 13.3 °C 11.4 °C 1010.4 hPa SSE 4.8 km/h 12.9 km/h 88% 1.27 mm
10:25 13.5 °C 11.6 °C 1010 hPa SSE 6.4 km/h 11.3 km/h 88% 1.27 mm
10:29 13.8 °C 12 °C 1010 hPa SSE 4.8 km/h 11.3 km/h 89% 1.27 mm
10:34 14.1 °C 12.3 °C 1010 hPa SE 4.8 km/h 9.7 km/h 89% 1.27 mm
10:39 14.3 °C 12.4 °C 1010 hPa SSE 6.4 km/h 12.9 km/h 88% 1.02 mm
10:44 14.5 °C 12.6 °C 1010 hPa SSE 8 km/h 12.9 km/h 88% 1.02 mm
10:50 14.8 °C 12.8 °C 1009.7 hPa SSE 4.8 km/h 16.1 km/h 88% 0.76 mm
10:54 14.9 °C 12.8 °C 1010 hPa South 1.6 km/h 11.3 km/h 87% 0.76 mm
11:00 15.3 °C 13.2 °C 1010 hPa SSW 11.3 km/h 17.7 km/h 87% 0.76 mm
11:04 15.9 °C 13.6 °C 1009.7 hPa South 6.4 km/h 17.7 km/h 86% 0.25 mm
11:10 16.3 °C 13.4 °C 1009.7 hPa South 6.4 km/h 16.1 km/h 83% 0.25 mm
11:15 16.4 °C 13.3 °C 1009.7 hPa South 6.4 km/h 16.1 km/h 82% 0 mm
11:20 16.7 °C 13.2 °C 1009.4 hPa South 8 km/h 14.5 km/h 80% 0.25 mm
11:25 16.7 °C 13.3 °C 1009.4 hPa SSW 6.4 km/h 17.7 km/h 80% 0.25 mm
11:30 17.4 °C 13.7 °C 1009.4 hPa WSW 12.9 km/h 17.7 km/h 79% 0.25 mm
11:34 17.3 °C 13.4 °C 1009.4 hPa SSW 8 km/h 17.7 km/h 78% 0.25 mm
11:39 17.2 °C 13.5 °C 1009.4 hPa SSW 8 km/h 17.7 km/h 79% 0.25 mm
11:45 17.1 °C 13.4 °C 1009 hPa SSW 6.4 km/h 14.5 km/h 79% 0.25 mm
11:50 17.1 °C 13.4 °C 1008.7 hPa SSW 6.4 km/h 12.9 km/h 79% 0.25 mm
11:54 17.2 °C 13.5 °C 1008.7 hPa South 4.8 km/h 14.5 km/h 79% 0.25 mm
11:59 17.3 °C 13.7 °C 1008.7 hPa SSW 8 km/h 17.7 km/h 79% 0.25 mm
12:04 17.9 °C 14.4 °C 1008.7 hPa SSW 6.4 km/h 17.7 km/h 80% 0.25 mm
12:09 18.3 °C 14.2 °C 1008.7 hPa SSW 8 km/h 16.1 km/h 77% 0.25 mm
12:14 18.1 °C 14 °C 1008.7 hPa SSW 11.3 km/h 19.3 km/h 77% 0.25 mm
12:19 18.5 °C 14.6 °C 1008.7 hPa WSW 6.4 km/h 19.3 km/h 78% 0 mm
12:24 19.7 °C 15.1 °C 1008.7 hPa SW 8 km/h 16.1 km/h 75% 0 mm
12:30 19.6 °C 14.6 °C 1008.4 hPa SW 9.7 km/h 19.3 km/h 73% 0 mm
12:34 19.8 °C 15.4 °C 1008.4 hPa SSW 8 km/h 19.3 km/h 76% 0 mm
12:39 20.2 °C 15.4 °C 1008.4 hPa SW 9.7 km/h 19.3 km/h 74% 0 mm
12:44 20.4 °C 15.7 °C 1008.4 hPa SW 11.3 km/h 24.1 km/h 74% 0 mm
12:50 20.7 °C 15.4 °C 1008.4 hPa SW 11.3 km/h 24.1 km/h 72% 0 mm
12:55 20.7 °C 15.3 °C 1008.4 hPa SW 11.3 km/h 24.1 km/h 71% 0 mm
13:00 20.9 °C 15.7 °C 1008.4 hPa SW 11.3 km/h 22.5 km/h 72% 0 mm
13:04 21.2 °C 15.5 °C 1008 hPa WSW 17.7 km/h 24.1 km/h 70% 0 mm
13:09 21.4 °C 15.9 °C 1008 hPa West 14.5 km/h 22.5 km/h 71% 0 mm
13:14 21.7 °C 15.8 °C 1008 hPa West 4.8 km/h 30.6 km/h 69% 0 mm
13:19 21.6 °C 15.8 °C 1008 hPa WSW 11.3 km/h 29 km/h 70% 0 mm
13:24 21.4 °C 16.2 °C 1008 hPa WSW 9.7 km/h 25.7 km/h 72% 0 mm
13:29 21.8 °C 16.1 °C 1008 hPa SSW 9.7 km/h 27.4 km/h 70% 0 mm
13:34 21.9 °C 15.9 °C 1008 hPa WSW 14.5 km/h 27.4 km/h 69% 0 mm
13:39 21.8 °C 16.1 °C 1008 hPa WSW 14.5 km/h 27.4 km/h 70% 0 mm
13:44 21.7 °C 16 °C 1008 hPa WSW 12.9 km/h 27.4 km/h 70% 0 mm
13:50 21.6 °C 15.6 °C 1008 hPa WSW 12.9 km/h 30.6 km/h 69% 0 mm
13:55 21.2 °C 15.6 °C 1008 hPa SW 12.9 km/h 32.2 km/h 70% 0 mm
13:59 21.1 °C 15.7 °C 1007.7 hPa West 12.9 km/h 30.6 km/h 71% 0 mm
14:04 21.4 °C 15.9 °C 1008 hPa WSW 14.5 km/h 30.6 km/h 71% 0 mm
14:09 21.3 °C 15.3 °C 1007.7 hPa WSW 14.5 km/h 27.4 km/h 69% 0 mm
14:14 21.2 °C 15.5 °C 1007.7 hPa WSW 14.5 km/h 32.2 km/h 70% 0 mm
14:19 21.1 °C 15.7 °C 1007.7 hPa WSW 16.1 km/h 32.2 km/h 71% 0 mm
14:24 21.3 °C 15.8 °C 1007.7 hPa WSW 14.5 km/h 30.6 km/h 71% 0 mm
14:29 21.6 °C 16.3 °C 1007.7 hPa West 11.3 km/h 27.4 km/h 72% 0 mm
14:34 22 °C 16.3 °C 1007.7 hPa WSW 14.5 km/h 27.4 km/h 70% 0 mm
14:39 22.2 °C 16.5 °C 1007.7 hPa WSW 12.9 km/h 24.1 km/h 70% 0 mm
14:44 22.3 °C 16.3 °C 1007.7 hPa West 11.3 km/h 25.7 km/h 69% 0 mm
14:49 22.5 °C 16.8 °C 1007.7 hPa WSW 8 km/h 25.7 km/h 70% 0 mm
14:54 22.7 °C 16.9 °C 1007.7 hPa WSW 6.4 km/h 24.1 km/h 70% 0 mm
14:59 22.9 °C 16.4 °C 1007.3 hPa SSW 9.7 km/h 32.2 km/h 67% 0 mm
15:04 22.8 °C 16.6 °C 1007.3 hPa WSW 12.9 km/h 32.2 km/h 68% 0 mm
15:09 22.9 °C 16.9 °C 1007.3 hPa WSW 12.9 km/h 33.8 km/h 69% 0 mm
15:14 23.1 °C 16.9 °C 1007.3 hPa WSW 12.9 km/h 33.8 km/h 68% 0 mm
15:20 23.1 °C 16.8 °C 1007.3 hPa SW 12.9 km/h 22.5 km/h 68% 0 mm
15:25 22.9 °C 16.7 °C 1007.3 hPa WSW 22.5 km/h 30.6 km/h 68% 0 mm
15:29 22.8 °C 16.8 °C 1007 hPa SW 17.7 km/h 25.7 km/h 69% 0 mm
15:34 22.7 °C 16.9 °C 1007 hPa SW 14.5 km/h 35.4 km/h 70% 0 mm
15:39 22.8 °C 16.8 °C 1007 hPa SW 12.9 km/h 35.4 km/h 69% 0 mm
15:49 21.9 °C 16.4 °C 1007 hPa WSW 9.7 km/h 24.1 km/h 71% 0 mm
15:54 22.7 °C 16.9 °C 1007 hPa West 8 km/h 22.5 km/h 70% 0 mm
15:59 22.8 °C 16.6 °C 1007 hPa West 14.5 km/h 22.5 km/h 68% 0 mm
16:04 22.6 °C 16.3 °C 1007 hPa West 11.3 km/h 24.1 km/h 68% 0 mm
16:09 22.3 °C 16.3 °C 1007 hPa WSW 12.9 km/h 29 km/h 69% 0 mm
16:14 22.1 °C 16.1 °C 1007 hPa WSW 17.7 km/h 27.4 km/h 69% 0 mm
16:19 22.3 °C 15.8 °C 1007 hPa WSW 11.3 km/h 27.4 km/h 67% 0 mm
16:24 22.8 °C 16.2 °C 1007 hPa WSW 4.8 km/h 22.5 km/h 66% 0 mm
16:29 22.9 °C 16.3 °C 1006.7 hPa WSW 8 km/h 20.9 km/h 66% 0 mm
16:34 22.8 °C 16.1 °C 1007 hPa WSW 6.4 km/h 24.1 km/h 66% 0 mm
16:39 22.8 °C 16.2 °C 1006.7 hPa WSW 9.7 km/h 24.1 km/h 66% 0 mm
16:44 22.8 °C 15.8 °C 1006.7 hPa WSW 9.7 km/h 22.5 km/h 65% 0 mm
16:49 22.6 °C 15.7 °C 1006.7 hPa WSW 11.3 km/h 25.7 km/h 65% 0 mm
16:55 22.4 °C 15.7 °C 1006.7 hPa WSW 12.9 km/h 25.7 km/h 66% 0 mm
16:59 22.1 °C 15.4 °C 1006.7 hPa WSW 8 km/h 25.7 km/h 66% 0 mm
17:04 22 °C 15.8 °C 1006.7 hPa WSW 12.9 km/h 25.7 km/h 68% 0 mm
17:09 22.1 °C 15.9 °C 1006.7 hPa West 8 km/h 17.7 km/h 68% 0 mm
17:14 21.9 °C 15.8 °C 1006.3 hPa SW 11.3 km/h 24.1 km/h 68% 0 mm
17:19 21.9 °C 15.7 °C 1006.3 hPa West 14.5 km/h 22.5 km/h 68% 0 mm
17:24 22 °C 15.8 °C 1006.3 hPa SW 16.1 km/h 25.7 km/h 68% 0 mm
17:29 22.6 °C 16.1 °C 1006.3 hPa West 12.9 km/h 20.9 km/h 67% 0 mm
17:34 22.6 °C 16.1 °C 1006.3 hPa WSW 14.5 km/h 24.1 km/h 67% 0 mm
17:39 22.4 °C 16 °C 1006.3 hPa West 11.3 km/h 24.1 km/h 67% 0 mm
17:44 22.5 °C 16.3 °C 1006.3 hPa West 11.3 km/h 22.5 km/h 68% 0 mm
17:49 22.1 °C 15.7 °C 1006 hPa WSW 9.7 km/h 20.9 km/h 67% 0 mm
17:54 21.7 °C 15.8 °C 1006 hPa WSW 4.8 km/h 22.5 km/h 69% 0 mm
17:59 21.6 °C 15.8 °C 1006 hPa West 11.3 km/h 16.1 km/h 70% 0 mm
18:04 21.6 °C 15.9 °C 1006 hPa SW 4.8 km/h 17.7 km/h 70% 0 mm
18:09 21.4 °C 15.9 °C 1006 hPa SW 9.7 km/h 20.9 km/h 71% 0 mm
18:14 21.4 °C 15.9 °C 1006 hPa SW 9.7 km/h 20.9 km/h 71% 0 mm
18:19 21.2 °C 15.7 °C 1006 hPa WSW 8 km/h 17.7 km/h 71% 0 mm
18:24 21.2 °C 15.7 °C 1006 hPa WSW 6.4 km/h 12.9 km/h 71% 0 mm
18:29 21.3 °C 15.8 °C 1006 hPa West 1.6 km/h 11.3 km/h 71% 0 mm
18:34 21.3 °C 15.8 °C 1006 hPa SW 4.8 km/h 14.5 km/h 71% 0 mm
18:44 21.3 °C 15.8 °C 1006.3 hPa WSW 6.4 km/h 16.1 km/h 71% 0 mm
18:49 21.4 °C 15.9 °C 1006 hPa WSW 4.8 km/h 11.3 km/h 71% 0 mm
18:54 21.5 °C 15.8 °C 1006 hPa SW 4.8 km/h 12.9 km/h 70% 0 mm
19:00 21.5 °C 15.6 °C 1006.3 hPa WSW 6.4 km/h 9.7 km/h 69% 0 mm
19:04 21.4 °C 15.7 °C 1006.3 hPa SW 8 km/h 16.1 km/h 70% 0 mm
19:09 21.3 °C 15.6 °C 1006.3 hPa SW 8 km/h 17.7 km/h 70% 0 mm
19:14 21.2 °C 15.6 °C 1006 hPa SW 8 km/h 19.3 km/h 70% 0 mm
19:19 21.1 °C 15.7 °C 1006 hPa SW 8 km/h 19.3 km/h 71% 0 mm
19:24 21 °C 15.6 °C 1006 hPa SSE 4.8 km/h 12.9 km/h 71% 0 mm
19:29 20.9 °C 15.7 °C 1006 hPa West 3.2 km/h 9.7 km/h 72% 0 mm
19:34 21 °C 15.8 °C 1006 hPa WSW 8 km/h 14.5 km/h 72% 0 mm
19:39 20.8 °C 16 °C 1006 hPa WSW 8 km/h 17.7 km/h 74% 0 mm
19:44 20.4 °C 16.1 °C 1006 hPa SW 8 km/h 17.7 km/h 76% 0 mm
19:49 20.2 °C 16.3 °C 1006 hPa WSW 4.8 km/h 11.3 km/h 78% 0 mm
19:54 20.2 °C 16.2 °C 1006 hPa West 8 km/h 14.5 km/h 78% 0 mm
19:59 20.1 °C 16.2 °C 1006.3 hPa WSW 11.3 km/h 12.9 km/h 78% 0 mm
20:04 20 °C 16.1 °C 1006 hPa West 3.2 km/h 12.9 km/h 78% 0 mm
20:09 19.9 °C 16.1 °C 1006 hPa WSW 4.8 km/h 12.9 km/h 79% 0 mm
20:14 19.8 °C 16.1 °C 1006 hPa WSW 4.8 km/h 11.3 km/h 79% 0 mm
20:19 19.8 °C 15.8 °C 1006 hPa WSW 3.2 km/h 8 km/h 78% 0 mm
20:24 19.8 °C 15.8 °C 1005.6 hPa WSW 1.6 km/h 6.4 km/h 78% 0 mm
20:29 19.7 °C 15.8 °C 1006 hPa West 3.2 km/h 8 km/h 78% 0 mm
20:34 19.7 °C 15.7 °C 1006 hPa WSW 1.6 km/h 8 km/h 78% 0 mm
20:39 19.7 °C 15.9 °C 1006 hPa West 1.6 km/h 6.4 km/h 79% 0 mm
20:44 19.6 °C 15.9 °C 1006 hPa Calm   4.8 km/h 79% 0 mm
20:49 19.6 °C 15.8 °C 1006.3 hPa WSW 1.6 km/h 4.8 km/h 79% 0 mm
20:54 19.5 °C 15.9 °C 1006.3 hPa Calm   1.6 km/h 80% 0 mm
20:59 19.4 °C 15.9 °C 1006 hPa SSW 3.2 km/h 4.8 km/h 80% 0 mm
21:04 19.4 °C 16.1 °C 1006 hPa South 1.6 km/h 6.4 km/h 81% 0 mm
21:09 19.4 °C 16.1 °C 1006.3 hPa South 1.6 km/h 6.4 km/h 81% 0 mm
21:14 19.3 °C 16.2 °C 1006.3 hPa South 1.6 km/h 4.8 km/h 82% 0 mm
21:19 19.3 °C 16.2 °C 1006.3 hPa Calm   3.2 km/h 82% 0 mm
21:24 19.3 °C 16.2 °C 1006.3 hPa Calm   4.8 km/h 82% 0 mm
21:29 19.3 °C 16.1 °C 1006.3 hPa SSW 1.6 km/h 4.8 km/h 82% 0 mm
21:34 19.3 °C 16.1 °C 1006.3 hPa Calm   3.2 km/h 82% 0 mm
21:39 19.2 °C 16.3 °C 1006.3 hPa Calm   3.2 km/h 83% 0 mm
21:44 19.2 °C 16.3 °C 1006.3 hPa Calm     83% 0 mm
21:49 19.2 °C 16.4 °C 1006.3 hPa Calm     84% 0 mm
21:54 19.2 °C 16.4 °C 1006.3 hPa Calm     84% 0 mm
21:59 19.2 °C 16.4 °C 1006.3 hPa Calm     84% 0 mm
22:04 19.2 °C 16.4 °C 1006.3 hPa South 1.6 km/h 4.8 km/h 84% 0 mm
22:09 19.2 °C 16.6 °C 1006.3 hPa Calm   4.8 km/h 85% 0 mm
22:14 19.2 °C 16.6 °C 1006.3 hPa Calm   3.2 km/h 85% 0 mm
22:19 19.1 °C 16.6 °C 1006.3 hPa Calm     85% 0 mm
22:24 19.2 °C 16.6 °C 1006.3 hPa Calm   1.6 km/h 85% 0 mm
22:29 19.2 °C 16.6 °C 1006.3 hPa Calm   1.6 km/h 85% 0 mm
22:34 19.2 °C 16.6 °C 1006.3 hPa Calm     85% 0 mm
22:39 19.2 °C 16.8 °C 1006.3 hPa Calm     86% 0 mm
22:44 19.1 °C 16.7 °C 1006.3 hPa Calm     86% 0 mm
22:49 19.1 °C 16.7 °C 1006.3 hPa Calm     86% 0 mm
22:54 18.9 °C 16.6 °C 1006.3 hPa Calm     86% 0 mm
22:59 18.8 °C 16.4 °C 1006.3 hPa Calm     86% 0 mm
23:04 18.6 °C 16.2 °C 1006.3 hPa SW 1.6 km/h 1.6 km/h 86% 0 mm
23:09 18.5 °C 16.1 °C 1006 hPa SW 1.6 km/h 9.7 km/h 86% 0 mm
23:14 18.4 °C 15.8 °C 1006 hPa SW 4.8 km/h 9.7 km/h 85% 0 mm
23:19 18.3 °C 15.8 °C 1006.3 hPa SW 4.8 km/h 9.7 km/h 85% 0 mm
23:24 18.2 °C 15.7 °C 1006.3 hPa WSW 3.2 km/h 8 km/h 85% 0 mm
23:29 18.1 °C 15.6 °C 1006.3 hPa SW 3.2 km/h 6.4 km/h 85% 0 mm
23:34 17.9 °C 15.4 °C 1006.3 hPa WSW 1.6 km/h 4.8 km/h 85% 0 mm
23:39 17.9 °C 15.5 °C 1006.3 hPa WSW 4.8 km/h 6.4 km/h 86% 0 mm
23:44 17.8 °C 15.4 °C 1006.3 hPa WSW 1.6 km/h 6.4 km/h 86% 0 mm
23:49 17.7 °C 15.3 °C 1006.3 hPa WSW 1.6 km/h 6.4 km/h 86% 0 mm
23:54 17.6 °C 15.2 °C 1006.3 hPa WSW 3.2 km/h 6.4 km/h 86% 0 mm
23:59 17.6 °C 15.4 °C 1006.3 hPa West 1.6 km/h 6.4 km/h 87% 0 mm
Buffalo, New York, USA
Compliments of Weather Underground - 2.5 mb